Time;durP1;ratioP1;P1;durP2;ratioP2;P2;SDS_P1;SDS_P2;PMS_P1;PMS_P2;Temp;Humidity;BMP_temperature;BMP_pressure;BME280_temperature;BME280_humidity;BME280_pressure;Samples;Min_cycle;Max_cycle;Signal;HPM_P1;HPM_P2
2023/01/21 00:01:24;;;;;;;38.00;28.40;;;;;;;;;;5052511;28;20055;-63
2023/01/21 00:03:50;;;;;;;37.53;28.92;;;;;;;;;;5052474;28;20071;-62
2023/01/21 00:06:17;;;;;;;39.08;31.15;;;;;;;;;;5052326;28;20049;-63
2023/01/21 00:08:43;;;;;;;43.97;33.20;;;;;;;;;;5051854;28;20572;-62
2023/01/21 00:11:13;;;;;;;40.80;32.40;;;;;;;;;;5052254;28;20124;-63
2023/01/21 00:13:40;;;;;;;40.63;30.60;;;;;;;;;;5052333;28;20056;-63
2023/01/21 00:16:08;;;;;;;39.80;30.60;;;;;;;;;;5052022;28;20566;-62
2023/01/21 00:18:34;;;;;;;41.92;31.38;;;;;;;;;;5051996;28;20557;-63
2023/01/21 00:21:00;;;;;;;41.08;30.40;;;;;;;;;;5052143;28;20059;-63
2023/01/21 00:23:27;;;;;;;34.47;27.75;;;;;;;;;;5052229;28;20045;-62
2023/01/21 00:26:00;;;;;;;35.67;28.08;;;;;;;;;;5051885;28;20049;-62
2023/01/21 00:28:27;;;;;;;35.88;28.48;;;;;;;;;;5051922;28;20075;-63
2023/01/21 00:30:58;;;;;;;41.40;31.58;;;;;;;;;;5051761;28;20534;-62
2023/01/21 00:33:25;;;;;;;39.60;30.85;;;;;;;;;;5049065;28;20106;-62
2023/01/21 00:36:02;;;;;;;42.05;29.52;;;;;;;;;;5050764;28;20053;-62
2023/01/21 00:38:29;;;;;;;37.38;27.83;;;;;;;;;;5050080;28;20053;-62
2023/01/21 00:41:09;;;;;;;31.67;26.23;;;;;;;;;;5051919;28;20048;-62
2023/01/21 00:43:35;;;;;;;35.55;26.52;;;;;;;;;;5051524;28;20131;-62
2023/01/21 00:46:01;;;;;;;33.17;27.23;;;;;;;;;;5051487;28;20700;-62
2023/01/21 00:48:28;;;;;;;32.65;26.63;;;;;;;;;;5051555;28;20045;-62
2023/01/21 00:50:57;;;;;;;35.78;27.63;;;;;;;;;;5051516;28;20519;-62
2023/01/21 00:53:24;;;;;;;37.42;29.83;;;;;;;;;;5051468;28;20059;-62
2023/01/21 00:55:50;;;;;;;36.92;27.75;;;;;;;;;;5051434;28;20057;-62
2023/01/21 00:58:17;;;;;;;55.75;35.53;;;;;;;;;;5051476;28;20052;-62
2023/01/21 01:00:43;;;;;;;58.63;35.70;;;;;;;;;;5051296;28;20084;-62
2023/01/21 01:03:10;;;;;;;41.78;29.88;;;;;;;;;;5051630;28;20095;-63
2023/01/21 01:05:36;;;;;;;38.25;28.70;;;;;;;;;;5051386;28;20142;-62
2023/01/21 01:08:02;;;;;;;40.58;28.70;;;;;;;;;;5051204;28;20423;-62
2023/01/21 01:10:29;;;;;;;43.50;30.77;;;;;;;;;;5051189;28;20045;-63
2023/01/21 01:12:55;;;;;;;42.40;29.23;;;;;;;;;;5051178;28;20515;-63
2023/01/21 01:15:21;;;;;;;39.85;29.48;;;;;;;;;;5051484;28;20053;-62
2023/01/21 01:17:48;;;;;;;42.08;28.73;;;;;;;;;;5051218;28;20443;-62
2023/01/21 01:20:14;;;;;;;40.75;27.83;;;;;;;;;;5051465;28;20480;-62
2023/01/21 01:22:41;;;;;;;39.15;28.13;;;;;;;;;;5051112;28;20049;-62
2023/01/21 01:25:08;;;;;;;38.83;28.30;;;;;;;;;;5051116;28;20462;-62
2023/01/21 01:27:34;;;;;;;32.50;25.58;;;;;;;;;;5051222;28;20056;-62
2023/01/21 01:30:00;;;;;;;35.40;24.88;;;;;;;;;;5051157;28;20045;-62
2023/01/21 01:32:27;;;;;;;34.88;25.08;;;;;;;;;;5051037;28;20044;-63
2023/01/21 01:34:53;;;;;;;29.80;23.45;;;;;;;;;;5051088;28;20053;-62
2023/01/21 01:37:20;;;;;;;31.20;23.25;;;;;;;;;;5050818;28;20049;-62
2023/01/21 01:39:46;;;;;;;29.65;22.00;;;;;;;;;;5051254;28;20055;-62
2023/01/21 01:42:13;;;;;;;30.25;24.40;;;;;;;;;;5051176;28;20063;-62
2023/01/21 01:44:52;;;;;;;32.47;23.30;;;;;;;;;;5051007;28;20519;-62
2023/01/21 01:47:19;;;;;;;32.50;23.52;;;;;;;;;;5050916;28;20037;-62
2023/01/21 01:49:45;;;;;;;32.00;22.45;;;;;;;;;;5051657;28;20475;-62
2023/01/21 01:52:13;;;;;;;31.02;24.45;;;;;;;;;;5054645;28;20045;-62
2023/01/21 01:54:42;;;;;;;31.13;23.52;;;;;;;;;;5054787;28;20488;-62
2023/01/21 01:57:10;;;;;;;32.72;24.73;;;;;;;;;;5054740;28;20049;-63
2023/01/21 01:59:36;;;;;;;30.02;24.00;;;;;;;;;;5054741;28;20128;-62
2023/01/21 02:02:05;;;;;;;31.23;23.17;;;;;;;;;;5054425;28;20518;-62
2023/01/21 02:04:35;;;;;;;31.17;22.67;;;;;;;;;;5054713;28;20147;-62
2023/01/21 02:07:02;;;;;;;33.05;23.08;;;;;;;;;;5054353;28;20056;-62
2023/01/21 02:09:29;;;;;;;33.20;23.90;;;;;;;;;;5054555;28;20048;-62
2023/01/21 02:11:56;;;;;;;31.55;23.83;;;;;;;;;;5054350;28;20568;-62
2023/01/21 02:14:23;;;;;;;29.55;23.25;;;;;;;;;;5054584;28;20407;-62
2023/01/21 02:17:24;;;;;;;35.42;24.80;;;;;;;;;;5054370;28;20075;-62
2023/01/21 02:20:14;;;;;;;31.52;23.08;;;;;;;;;;4973240;28;20061;-62
2023/01/21 02:22:49;;;;;;;31.55;23.52;;;;;;;;;;5021358;28;20060;-62
2023/01/21 02:25:44;;;;;;;33.10;24.17;;;;;;;;;;5054175;28;20055;-63
2023/01/21 02:28:30;;;;;;;35.78;23.33;;;;;;;;;;4980495;28;20050;-62
2023/01/21 02:31:12;;;;;;;34.75;23.73;;;;;;;;;;5048773;28;20089;-62
2023/01/21 02:33:51;;;;;;;33.22;23.20;;;;;;;;;;5053963;28;20048;-63
2023/01/21 02:36:18;;;;;;;40.80;26.27;;;;;;;;;;5052569;28;20073;-62
2023/01/21 02:38:47;;;;;;;35.55;24.95;;;;;;;;;;5054037;28;20052;-62
2023/01/21 02:41:21;;;;;;;35.90;23.50;;;;;;;;;;5054055;28;20049;-62
2023/01/21 02:43:52;;;;;;;34.88;23.80;;;;;;;;;;5054084;28;20055;-62
2023/01/21 02:46:24;;;;;;;34.97;24.17;;;;;;;;;;5053618;28;20491;-62
2023/01/21 02:48:55;;;;;;;34.33;24.55;;;;;;;;;;5054037;28;20102;-62
2023/01/21 02:51:22;;;;;;;33.97;24.85;;;;;;;;;;5053929;28;20052;-62
2023/01/21 02:53:48;;;;;;;35.13;24.73;;;;;;;;;;5053573;28;20505;-62
2023/01/21 02:56:17;;;;;;;39.50;25.13;;;;;;;;;;5053460;28;20510;-62
2023/01/21 02:58:49;;;;;;;36.10;23.48;;;;;;;;;;5053499;28;20060;-62
2023/01/21 03:01:40;;;;;;;37.80;24.58;;;;;;;;;;5052325;28;20045;-62
2023/01/21 03:04:06;;;;;;;40.63;24.95;;;;;;;;;;5053592;28;20056;-62
2023/01/21 03:06:33;;;;;;;35.28;22.67;;;;;;;;;;5053432;28;20083;-62
2023/01/21 03:09:07;;;;;;;34.65;23.88;;;;;;;;;;5053309;28;20063;-62
2023/01/21 03:11:34;;;;;;;38.10;26.35;;;;;;;;;;5053501;28;20052;-62
2023/01/21 03:16:59;;;;;;;36.42;24.27;;;;;;;;;;5053254;28;20052;-62
2023/01/21 03:19:49;;;;;;;38.10;24.85;;;;;;;;;;5053167;28;20047;-62
2023/01/21 03:22:21;;;;;;;33.20;23.52;;;;;;;;;;5053641;28;20059;-62
2023/01/21 03:24:50;;;;;;;36.70;23.75;;;;;;;;;;5053483;28;20080;-62
2023/01/21 03:27:19;;;;;;;36.92;24.63;;;;;;;;;;5052851;28;20044;-62
2023/01/21 03:29:46;;;;;;;36.55;23.88;;;;;;;;;;5053021;28;20132;-62
2023/01/21 03:32:14;;;;;;;37.20;25.25;;;;;;;;;;5053084;28;20049;-62
2023/01/21 03:34:43;;;;;;;35.78;23.88;;;;;;;;;;5053173;28;20128;-62
2023/01/21 03:37:10;;;;;;;37.70;24.75;;;;;;;;;;5052764;28;20497;-62
2023/01/21 03:40:01;;;;;;;36.58;24.13;;;;;;;;;;5052764;28;20053;-62
2023/01/21 03:42:28;;;;;;;44.50;25.83;;;;;;;;;;5052939;28;20084;-62
2023/01/21 03:44:55;;;;;;;42.15;24.90;;;;;;;;;;5052517;28;20460;-61
2023/01/21 03:47:41;;;;;;;39.47;24.58;;;;;;;;;;5052790;28;20052;-62
2023/01/21 03:50:26;;;;;;;37.25;24.33;;;;;;;;;;5052374;28;20092;-62
2023/01/21 03:52:52;;;;;;;41.05;24.50;;;;;;;;;;5052537;28;20055;-62
2023/01/21 03:55:19;;;;;;;35.10;23.02;;;;;;;;;;5052447;28;20084;-62
2023/01/21 03:57:45;;;;;;;35.22;22.30;;;;;;;;;;5052608;28;20059;-62
2023/01/21 04:00:12;;;;;;;35.88;23.27;;;;;;;;;;5052350;28;20059;-62
2023/01/21 04:02:38;;;;;;;38.47;24.65;;;;;;;;;;5052287;28;20493;-62
2023/01/21 04:05:05;;;;;;;38.55;24.27;;;;;;;;;;5052335;28;20080;-62
2023/01/21 04:07:31;;;;;;;34.95;22.98;;;;;;;;;;5052265;28;20063;-62
2023/01/21 04:09:57;;;;;;;32.20;22.45;;;;;;;;;;5052329;28;20049;-62
2023/01/21 04:12:24;;;;;;;33.22;22.70;;;;;;;;;;5052159;28;20053;-62
2023/01/21 04:14:50;;;;;;;30.30;21.92;;;;;;;;;;5052080;28;20087;-62
2023/01/21 04:17:17;;;;;;;34.92;22.75;;;;;;;;;;5052326;28;20053;-62
2023/01/21 04:19:43;;;;;;;32.03;21.85;;;;;;;;;;5051965;28;20879;-62
2023/01/21 04:22:09;;;;;;;34.38;21.83;;;;;;;;;;5051997;28;20122;-62
2023/01/21 04:24:36;;;;;;;35.85;22.30;;;;;;;;;;5051801;28;20049;-62
2023/01/21 04:27:02;;;;;;;34.33;22.42;;;;;;;;;;5052319;28;20405;-62
2023/01/21 04:29:28;;;;;;;34.13;22.27;;;;;;;;;;5052129;28;20052;-62
2023/01/21 04:31:55;;;;;;;29.13;18.90;;;;;;;;;;5051822;28;20044;-62
2023/01/21 04:34:21;;;;;;;29.58;18.58;;;;;;;;;;5051758;28;20489;-62
2023/01/21 04:36:47;;;;;;;30.50;20.23;;;;;;;;;;5051603;28;20048;-62
2023/01/21 04:39:14;;;;;;;32.60;20.33;;;;;;;;;;5051942;28;20052;-62
2023/01/21 04:41:40;;;;;;;35.97;22.67;;;;;;;;;;5051649;28;20068;-62
2023/01/21 04:44:07;;;;;;;41.50;23.00;;;;;;;;;;5051681;28;20408;-61
2023/01/21 04:46:33;;;;;;;34.50;21.65;;;;;;;;;;5051820;28;20051;-62
2023/01/21 04:48:59;;;;;;;39.67;23.73;;;;;;;;;;5051587;28;20049;-62
2023/01/21 04:51:26;;;;;;;35.88;24.40;;;;;;;;;;5051338;28;20053;-62
2023/01/21 04:53:52;;;;;;;38.38;24.13;;;;;;;;;;5051754;28;20049;-62
2023/01/21 04:56:18;;;;;;;35.10;22.55;;;;;;;;;;5051370;28;20143;-62
2023/01/21 04:58:45;;;;;;;32.47;20.83;;;;;;;;;;5051695;28;20041;-62
2023/01/21 05:01:11;;;;;;;27.85;19.98;;;;;;;;;;5051393;28;20045;-63
2023/01/21 05:03:38;;;;;;;35.33;21.48;;;;;;;;;;5051446;28;20520;-62
2023/01/21 05:06:04;;;;;;;34.10;21.38;;;;;;;;;;5051294;28;20416;-62
2023/01/21 05:08:31;;;;;;;34.58;21.98;;;;;;;;;;5051079;28;20063;-63
2023/01/21 05:10:57;;;;;;;39.05;22.73;;;;;;;;;;5051511;28;20049;-62
2023/01/21 05:13:23;;;;;;;32.97;19.77;;;;;;;;;;5051550;28;20049;-62
2023/01/21 05:15:50;;;;;;;33.95;20.35;;;;;;;;;;5051624;28;20455;-63
2023/01/21 05:18:16;;;;;;;33.05;19.65;;;;;;;;;;5051264;28;20080;-62
2023/01/21 05:20:42;;;;;;;32.97;20.08;;;;;;;;;;5051210;28;20056;-61
2023/01/21 05:23:09;;;;;;;35.60;20.63;;;;;;;;;;5051328;28;20079;-62
2023/01/21 05:25:35;;;;;;;31.10;20.13;;;;;;;;;;5053309;28;20048;-62
2023/01/21 05:28:01;;;;;;;32.70;20.33;;;;;;;;;;5055506;28;20045;-62
2023/01/21 05:30:28;;;;;;;27.80;19.58;;;;;;;;;;5055227;28;20044;-62
2023/01/21 05:32:55;;;;;;;28.75;18.77;;;;;;;;;;5055189;28;20483;-62
2023/01/21 05:35:22;;;;;;;29.33;18.50;;;;;;;;;;5055289;28;20408;-62
2023/01/21 05:37:49;;;;;;;30.90;19.10;;;;;;;;;;5055237;28;20124;-62
2023/01/21 05:40:16;;;;;;;30.10;18.23;;;;;;;;;;5055024;28;20052;-62
2023/01/21 05:42:43;;;;;;;32.08;18.88;;;;;;;;;;5055266;28;20053;-62
2023/01/21 05:45:12;;;;;;;28.05;18.48;;;;;;;;;;5054818;28;20083;-62
2023/01/21 05:47:39;;;;;;;28.45;18.42;;;;;;;;;;5054661;28;20053;-62
2023/01/21 05:50:06;;;;;;;27.52;19.30;;;;;;;;;;5055052;28;20085;-62
2023/01/21 05:52:32;;;;;;;29.00;19.73;;;;;;;;;;5054947;28;20094;-62
2023/01/21 05:54:59;;;;;;;26.25;18.65;;;;;;;;;;5055039;28;20049;-62
2023/01/21 05:57:28;;;;;;;25.95;19.85;;;;;;;;;;5054776;28;20080;-63
2023/01/21 05:59:54;;;;;;;24.67;18.40;;;;;;;;;;5054942;28;20053;-62
2023/01/21 06:02:21;;;;;;;29.88;18.60;;;;;;;;;;5054582;28;20053;-62
2023/01/21 06:04:47;;;;;;;28.77;18.13;;;;;;;;;;5054889;28;20045;-61
2023/01/21 06:07:13;;;;;;;27.83;17.42;;;;;;;;;;5054166;28;20397;-62
2023/01/21 06:09:40;;;;;;;23.73;17.45;;;;;;;;;;5054783;28;20053;-62
2023/01/21 06:12:06;;;;;;;26.98;17.35;;;;;;;;;;5054492;28;20051;-62
2023/01/21 06:14:33;;;;;;;23.65;15.90;;;;;;;;;;5054359;28;20430;-62
2023/01/21 06:16:59;;;;;;;21.55;14.77;;;;;;;;;;5054513;28;20385;-62
2023/01/21 06:19:25;;;;;;;26.95;16.38;;;;;;;;;;5054594;28;20063;-62
2023/01/21 06:21:52;;;;;;;22.90;15.45;;;;;;;;;;5054329;28;20048;-62
2023/01/21 06:24:18;;;;;;;24.77;14.85;;;;;;;;;;5054504;28;20135;-62
2023/01/21 06:26:44;;;;;;;22.75;14.55;;;;;;;;;;5054066;28;20053;-61
2023/01/21 06:29:11;;;;;;;19.95;15.23;;;;;;;;;;5054349;28;20041;-62
2023/01/21 06:31:38;;;;;;;20.17;15.25;;;;;;;;;;5054266;28;20041;-62
2023/01/21 06:34:04;;;;;;;21.37;16.03;;;;;;;;;;5054328;28;20080;-62
2023/01/21 06:36:31;;;;;;;22.15;16.23;;;;;;;;;;5053830;28;20412;-62
2023/01/21 06:38:57;;;;;;;23.52;17.27;;;;;;;;;;5054150;28;20400;-62
2023/01/21 06:41:23;;;;;;;20.98;15.88;;;;;;;;;;5054009;28;20051;-62
2023/01/21 06:43:50;;;;;;;26.38;16.27;;;;;;;;;;5054029;28;20059;-62
2023/01/21 06:46:16;;;;;;;24.20;16.52;;;;;;;;;;5053983;28;20063;-62
2023/01/21 06:48:42;;;;;;;21.25;16.13;;;;;;;;;;5053938;28;20132;-62
2023/01/21 06:51:09;;;;;;;20.92;15.93;;;;;;;;;;5053701;28;20045;-62
2023/01/21 06:53:35;;;;;;;24.08;16.05;;;;;;;;;;5054011;28;20095;-62
2023/01/21 06:56:02;;;;;;;26.05;17.00;;;;;;;;;;5053610;28;20052;-62
2023/01/21 06:58:29;;;;;;;22.85;15.70;;;;;;;;;;5053497;28;20063;-61
2023/01/21 07:00:56;;;;;;;23.92;17.23;;;;;;;;;;5053778;28;20055;-62
2023/01/21 07:03:22;;;;;;;23.85;17.02;;;;;;;;;;5053449;28;20560;-62
2023/01/21 07:05:48;;;;;;;20.60;16.33;;;;;;;;;;5053671;28;20140;-62
2023/01/21 07:08:15;;;;;;;25.83;16.55;;;;;;;;;;5053172;28;20059;-61
2023/01/21 07:10:41;;;;;;;23.45;16.70;;;;;;;;;;5053448;28;20045;-62
2023/01/21 07:13:07;;;;;;;29.48;19.65;;;;;;;;;;5053098;28;20457;-61
2023/01/21 07:15:34;;;;;;;25.45;17.98;;;;;;;;;;5053233;28;20051;-62
2023/01/21 07:18:00;;;;;;;29.85;18.90;;;;;;;;;;5053448;28;20585;-62
2023/01/21 07:20:27;;;;;;;25.25;18.45;;;;;;;;;;5053369;28;20131;-62
2023/01/21 07:22:53;;;;;;;26.00;18.73;;;;;;;;;;5053096;28;20053;-62
2023/01/21 07:25:19;;;;;;;25.55;19.15;;;;;;;;;;5053252;28;20135;-62
2023/01/21 07:27:46;;;;;;;25.02;18.38;;;;;;;;;;5052875;28;20503;-62
2023/01/21 07:30:14;;;;;;;24.55;18.38;;;;;;;;;;5052452;28;20119;-62
2023/01/21 07:32:41;;;;;;;26.80;18.15;;;;;;;;;;5052157;28;20048;-62
2023/01/21 07:35:08;;;;;;;29.20;18.63;;;;;;;;;;5052871;28;20064;-62
2023/01/21 07:37:34;;;;;;;27.20;18.55;;;;;;;;;;5052689;28;20568;-62
2023/01/21 07:40:00;;;;;;;29.38;18.42;;;;;;;;;;5052803;28;20131;-62
2023/01/21 07:42:27;;;;;;;40.10;22.25;;;;;;;;;;5052716;28;20049;-62
2023/01/21 07:44:53;;;;;;;28.10;18.38;;;;;;;;;;5052868;28;20092;-62
2023/01/21 07:47:20;;;;;;;26.08;17.10;;;;;;;;;;5050955;28;20049;-62
2023/01/21 07:49:47;;;;;;;23.45;16.50;;;;;;;;;;5052290;28;20576;-62
2023/01/21 07:52:14;;;;;;;26.08;18.58;;;;;;;;;;5051647;28;20040;-62
2023/01/21 07:54:40;;;;;;;22.58;17.50;;;;;;;;;;5051819;28;20053;-64
2023/01/21 07:57:07;;;;;;;24.55;17.75;;;;;;;;;;5051650;28;20045;-63
2023/01/21 07:59:33;;;;;;;25.40;18.70;;;;;;;;;;5052017;28;20049;-61
2023/01/21 08:02:00;;;;;;;26.38;20.10;;;;;;;;;;5051550;28;20049;-62
2023/01/21 08:04:27;;;;;;;27.08;19.70;;;;;;;;;;5051292;28;20051;-63
2023/01/21 08:06:55;;;;;;;24.80;19.80;;;;;;;;;;5051463;28;20059;-63
2023/01/21 08:09:23;;;;;;;25.50;19.30;;;;;;;;;;5051207;28;20056;-64
2023/01/21 08:11:49;;;;;;;24.83;18.00;;;;;;;;;;5051661;28;20055;-64
2023/01/21 08:14:16;;;;;;;25.48;17.90;;;;;;;;;;5051504;28;20411;-64
2023/01/21 08:16:42;;;;;;;24.73;17.45;;;;;;;;;;5051871;28;20073;-63
2023/01/21 08:19:09;;;;;;;25.42;18.20;;;;;;;;;;5051425;28;20049;-62
2023/01/21 08:21:39;;;;;;;29.73;17.80;;;;;;;;;;5051090;28;20060;-63
2023/01/21 08:24:05;;;;;;;40.08;20.17;;;;;;;;;;5050994;28;20084;-63
2023/01/21 08:26:32;;;;;;;36.22;20.15;;;;;;;;;;5051202;28;20048;-62
2023/01/21 08:28:58;;;;;;;37.40;19.83;;;;;;;;;;5050927;28;20456;-64
2023/01/21 08:31:25;;;;;;;49.38;19.67;;;;;;;;;;5051356;28;20102;-64
2023/01/21 08:33:51;;;;;;;34.53;18.70;;;;;;;;;;5051552;28;20125;-63
2023/01/21 08:36:17;;;;;;;37.40;19.33;;;;;;;;;;5051174;28;20064;-64
2023/01/21 08:38:44;;;;;;;56.28;22.00;;;;;;;;;;5051130;28;20055;-63
2023/01/21 08:41:13;;;;;;;51.90;22.50;;;;;;;;;;5051371;28;20132;-62
2023/01/21 08:43:40;;;;;;;62.35;24.38;;;;;;;;;;5050573;28;20087;-62
2023/01/21 08:46:06;;;;;;;47.35;22.70;;;;;;;;;;5050731;28;20468;-63
2023/01/21 08:48:33;;;;;;;53.50;23.30;;;;;;;;;;5050642;28;20444;-62
2023/01/21 08:50:59;;;;;;;75.47;24.63;;;;;;;;;;5050399;28;20163;-64
2023/01/21 08:53:26;;;;;;;63.90;24.83;;;;;;;;;;5050584;28;20049;-63
2023/01/21 08:55:52;;;;;;;62.63;24.15;;;;;;;;;;5050938;28;20052;-66
2023/01/21 08:58:18;;;;;;;65.03;26.08;;;;;;;;;;5050760;28;20151;-64
2023/01/21 09:00:45;;;;;;;75.57;27.42;;;;;;;;;;5050824;28;20505;-64
2023/01/21 09:03:15;;;;;;;67.32;26.08;;;;;;;;;;5051108;28;20446;-64
2023/01/21 09:05:42;;;;;;;55.55;25.63;;;;;;;;;;5050734;28;20048;-63
2023/01/21 09:08:08;;;;;;;61.90;27.75;;;;;;;;;;5032770;28;20059;-64
2023/01/21 09:13:20;;;;;;;261.13;101.15;;;;;;;;;;5050869;28;20128;-62
2023/01/21 09:15:46;;;;;;;92.07;36.78;;;;;;;;;;5050902;28;20052;-64
2023/01/21 09:18:12;;;;;;;98.07;28.65;;;;;;;;;;5050910;28;20063;-64
2023/01/21 09:20:39;;;;;;;84.93;24.40;;;;;;;;;;5050526;28;20049;-64
2023/01/21 09:23:22;;;;;;;57.88;23.85;;;;;;;;;;5050453;28;20057;-65
2023/01/21 09:25:54;;;;;;;55.95;22.48;;;;;;;;;;5049368;28;20056;-63
2023/01/21 09:28:21;;;;;;;63.90;24.30;;;;;;;;;;5050515;28;20682;-64
2023/01/21 09:30:47;;;;;;;59.65;23.48;;;;;;;;;;5050595;28;20051;-64
2023/01/21 09:33:14;;;;;;;65.88;28.65;;;;;;;;;;5050539;28;20041;-64
2023/01/21 09:35:40;;;;;;;64.07;25.05;;;;;;;;;;5050888;28;20053;-64
2023/01/21 09:38:07;;;;;;;51.92;22.80;;;;;;;;;;5050467;28;20057;-64
2023/01/21 09:40:34;;;;;;;66.38;25.00;;;;;;;;;;5050586;28;20488;-66
2023/01/21 09:43:02;;;;;;;71.72;23.45;;;;;;;;;;5050421;28;20456;-66
2023/01/21 09:45:28;;;;;;;82.15;23.33;;;;;;;;;;5030917;28;20045;-66
2023/01/21 09:47:55;;;;;;;51.35;22.02;;;;;;;;;;5050621;28;20067;-66
2023/01/21 09:50:22;;;;;;;80.35;23.67;;;;;;;;;;5050613;28;20057;-67
2023/01/21 09:52:51;;;;;;;43.53;21.35;;;;;;;;;;5050738;28;20128;-67
2023/01/21 09:55:18;;;;;;;50.72;21.13;;;;;;;;;;5050453;28;20053;-67
2023/01/21 09:57:45;;;;;;;;;;;;;;;;;;5050757;28;20144;-66
2023/01/21 10:00:18;;;;;;;45.28;20.08;;;;;;;;;;5050302;28;20372;-66
2023/01/21 10:02:52;;;;;;;56.88;20.42;;;;;;;;;;5050573;28;20053;-67
2023/01/21 10:05:21;;;;;;;63.33;22.25;;;;;;;;;;5050614;28;20055;-67
2023/01/21 10:07:54;;;;;;;53.85;20.83;;;;;;;;;;5050272;28;20065;-66
2023/01/21 10:10:23;;;;;;;51.55;21.45;;;;;;;;;;5032812;28;20052;-65
2023/01/21 10:12:49;;;;;;;59.33;21.40;;;;;;;;;;5054191;28;20071;-66
2023/01/21 10:15:42;;;;;;;59.58;20.63;;;;;;;;;;5053825;28;20515;-66
2023/01/21 10:18:11;;;;;;;49.55;19.80;;;;;;;;;;5032567;28;20049;-65
2023/01/21 10:20:49;;;;;;;43.67;20.20;;;;;;;;;;5054044;28;20048;-67
2023/01/21 10:23:21;;;;;;;39.90;20.13;;;;;;;;;;5053878;28;20109;-65
2023/01/21 10:25:48;;;;;;;54.63;19.83;;;;;;;;;;5053831;28;20475;-66
2023/01/21 10:28:22;;;;;;;40.42;20.00;;;;;;;;;;5053584;28;20572;-67
2023/01/21 10:30:50;;;;;;;51.63;20.17;;;;;;;;;;5035873;28;20141;-67
2023/01/21 10:33:19;;;;;;;43.78;19.70;;;;;;;;;;5053435;28;20084;-66
2023/01/21 10:35:48;;;;;;;48.95;18.80;;;;;;;;;;5054283;28;20416;-71
2023/01/21 10:38:36;;;;;;;42.58;19.70;;;;;;;;;;5053027;28;20531;-67
2023/01/21 10:41:07;;;;;;;33.45;18.77;;;;;;;;;;5051841;28;20542;-67
2023/01/21 10:43:46;;;;;;;44.58;19.85;;;;;;;;;;5052538;28;20049;-67
2023/01/21 10:46:19;;;;;;;33.83;18.98;;;;;;;;;;5052568;28;20059;-67
2023/01/21 10:48:51;;;;;;;48.78;22.23;;;;;;;;;;5036313;28;20235;-66
2023/01/21 10:51:20;;;;;;;44.75;20.58;;;;;;;;;;5053952;28;20047;-67
2023/01/21 10:53:57;;;;;;;47.67;20.50;;;;;;;;;;5035885;28;20412;-66
2023/01/21 10:56:42;;;;;;;42.85;19.98;;;;;;;;;;5053925;28;20037;-68
2023/01/21 10:59:17;;;;;;;42.67;19.55;;;;;;;;;;5054169;28;20053;-67
2023/01/21 11:01:46;;;;;;;54.08;20.33;;;;;;;;;;5053925;28;20132;-67
2023/01/21 11:04:20;;;;;;;42.63;20.67;;;;;;;;;;5053784;28;20053;-67
2023/01/21 11:07:02;;;;;;;46.22;21.55;;;;;;;;;;5053565;28;20061;-67
2023/01/21 11:09:34;;;;;;;48.35;21.20;;;;;;;;;;5049038;28;20051;-66
2023/01/21 11:12:01;;;;;;;50.97;22.13;;;;;;;;;;5049504;28;20060;-68
2023/01/21 11:14:28;;;;;;;57.85;22.92;;;;;;;;;;5034995;28;20090;-68
2023/01/21 11:16:55;;;;;;;54.05;23.13;;;;;;;;;;5050492;28;20053;-68
2023/01/21 11:19:26;;;;;;;58.95;23.10;;;;;;;;;;5052869;28;20057;-66
2023/01/21 11:22:03;;;;;;;42.72;22.30;;;;;;;;;;5052292;28;20049;-67
2023/01/21 11:24:31;;;;;;;40.20;21.88;;;;;;;;;;5052506;28;20053;-69
2023/01/21 11:26:59;;;;;;;39.53;22.75;;;;;;;;;;5034876;28;20118;-66
2023/01/21 11:29:26;;;;;;;40.38;20.40;;;;;;;;;;5051063;28;20072;-67
2023/01/21 11:32:03;;;;;;;41.90;18.77;;;;;;;;;;5052456;28;20505;-67
2023/01/21 11:34:30;;;;;;;;;;;;;;;;;;5053011;28;20037;-67
2023/01/21 11:36:58;;;;;;;34.15;18.33;;;;;;;;;;5052243;28;20383;-68
2023/01/21 11:39:28;;;;;;;34.53;18.10;;;;;;;;;;5052268;28;20051;-68
2023/01/21 11:42:03;;;;;;;47.00;19.27;;;;;;;;;;5052339;28;20519;-68
2023/01/21 11:44:29;;;;;;;36.45;18.48;;;;;;;;;;5034696;28;20044;-67
2023/01/21 11:46:56;;;;;;;42.10;18.30;;;;;;;;;;5034673;28;20063;-67
2023/01/21 11:49:24;;;;;;;39.25;18.58;;;;;;;;;;5052276;28;20048;-67
2023/01/21 11:52:04;;;;;;;31.10;18.25;;;;;;;;;;5052353;28;20045;-67
2023/01/21 11:54:36;;;;;;;32.47;18.20;;;;;;;;;;5051923;28;20041;-68
2023/01/21 11:57:02;;;;;;;25.98;16.73;;;;;;;;;;5034453;28;20045;-67
2023/01/21 11:59:37;;;;;;;34.63;17.83;;;;;;;;;;5052162;28;20132;-67
2023/01/21 12:02:07;;;;;;;28.27;16.95;;;;;;;;;;5051972;28;20136;-67
2023/01/21 12:04:34;;;;;;;29.80;18.63;;;;;;;;;;5051803;28;20041;-67
2023/01/21 12:07:00;;;;;;;30.20;17.65;;;;;;;;;;5051426;28;20492;-67
2023/01/21 12:09:27;;;;;;;30.33;17.95;;;;;;;;;;5051451;28;20135;-67
2023/01/21 12:12:13;;;;;;;27.67;16.70;;;;;;;;;;5033963;28;20132;-67
2023/01/21 12:14:51;;;;;;;33.80;17.52;;;;;;;;;;5051509;28;20416;-67
2023/01/21 12:17:29;;;;;;;31.13;18.30;;;;;;;;;;5049499;28;20045;-68
2023/01/21 12:20:14;;;;;;;27.50;18.92;;;;;;;;;;5051735;28;20098;-68
2023/01/21 12:23:07;;;;;;;30.20;18.35;;;;;;;;;;5051468;28;20053;-68
2023/01/21 12:25:47;;;;;;;32.45;18.13;;;;;;;;;;4989045;28;20053;-68
2023/01/21 12:28:16;;;;;;;29.35;18.20;;;;;;;;;;5051791;28;20053;-68
2023/01/21 12:30:49;;;;;;;29.17;18.35;;;;;;;;;;5044036;28;20509;-67
2023/01/21 12:33:42;;;;;;;29.02;18.42;;;;;;;;;;5049934;28;20122;-67
2023/01/21 12:36:14;;;;;;;24.98;17.38;;;;;;;;;;5028871;28;20124;-67
2023/01/21 12:38:48;;;;;;;36.05;27.73;;;;;;;;;;5050364;28;20080;-67
2023/01/21 12:41:19;;;;;;;31.17;23.00;;;;;;;;;;5051298;28;20049;-67
2023/01/21 12:43:52;;;;;;;29.40;18.65;;;;;;;;;;5051773;28;20088;-66
2023/01/21 12:46:33;;;;;;;30.17;20.38;;;;;;;;;;5051166;28;20056;-67
2023/01/21 12:49:05;;;;;;;30.85;19.23;;;;;;;;;;5051433;28;20059;-67
2023/01/21 12:51:40;;;;;;;31.60;19.15;;;;;;;;;;5051795;28;20052;-66
2023/01/21 12:54:09;;;;;;;28.13;19.48;;;;;;;;;;5051975;28;20168;-66
2023/01/21 12:56:44;;;;;;;27.75;18.63;;;;;;;;;;5051761;28;20053;-67
2023/01/21 12:59:18;;;;;;;32.67;19.77;;;;;;;;;;5033448;28;20091;-67
2023/01/21 13:01:56;;;;;;;36.60;20.08;;;;;;;;;;5051609;28;20052;-67
2023/01/21 13:04:28;;;;;;;36.90;20.85;;;;;;;;;;5051723;28;20059;-67
2023/01/21 13:07:01;;;;;;;37.75;20.73;;;;;;;;;;5051453;28;20139;-66
2023/01/21 13:09:43;;;;;;;32.70;22.58;;;;;;;;;;5051137;28;20557;-67
2023/01/21 13:12:24;;;;;;;34.40;20.80;;;;;;;;;;5051621;28;20127;-67
2023/01/21 13:15:13;;;;;;;34.35;21.13;;;;;;;;;;5051569;28;20128;-66
2023/01/21 13:17:41;;;;;;;32.92;19.75;;;;;;;;;;5033489;28;20055;-67
2023/01/21 13:20:15;;;;;;;30.80;21.02;;;;;;;;;;5051269;28;20512;-67
2023/01/21 13:22:46;;;;;;;32.70;19.90;;;;;;;;;;5051533;28;20049;-66
2023/01/21 13:25:23;;;;;;;34.83;20.13;;;;;;;;;;5051346;28;20041;-66
2023/01/21 13:27:59;;;;;;;33.93;20.73;;;;;;;;;;5051104;28;20419;-67
2023/01/21 13:30:31;;;;;;;28.40;19.35;;;;;;;;;;5051316;28;20049;-67
2023/01/21 13:33:18;;;;;;;32.00;20.48;;;;;;;;;;5050977;28;20059;-67
2023/01/21 13:35:47;;;;;;;36.50;21.97;;;;;;;;;;5051559;28;20128;-67
2023/01/21 13:38:33;;;;;;;41.97;24.88;;;;;;;;;;5046993;28;20506;-66
2023/01/21 13:41:05;;;;;;;39.25;25.30;;;;;;;;;;5037057;28;20052;-68
2023/01/21 13:43:42;;;;;;;41.25;27.63;;;;;;;;;;5048693;28;20059;-67
2023/01/21 13:46:18;;;;;;;31.60;20.40;;;;;;;;;;5052608;28;20419;-67
2023/01/21 13:48:52;;;;;;;33.08;21.33;;;;;;;;;;5055113;28;20053;-66
2023/01/21 13:51:24;;;;;;;35.67;21.67;;;;;;;;;;5055244;28;20041;-67
2023/01/21 13:54:00;;;;;;;32.17;22.10;;;;;;;;;;5055006;28;20045;-67
2023/01/21 13:56:35;;;;;;;28.52;20.13;;;;;;;;;;5054295;28;20041;-67
2023/01/21 13:59:06;;;;;;;33.05;20.90;;;;;;;;;;5054644;28;20049;-68
2023/01/21 14:01:43;;;;;;;28.60;19.60;;;;;;;;;;5054828;28;20049;-67
2023/01/21 14:04:12;;;;;;;29.50;19.20;;;;;;;;;;5053091;28;20053;-67
2023/01/21 14:06:44;;;;;;;30.85;19.05;;;;;;;;;;5054319;28;20644;-67
2023/01/21 14:09:37;;;;;;;26.70;19.17;;;;;;;;;;5054410;28;20140;-68
2023/01/21 14:12:07;;;;;;;32.42;19.55;;;;;;;;;;5020035;28;20052;-70
2023/01/21 14:14:36;;;;;;;30.98;20.23;;;;;;;;;;5053931;28;20431;-68
2023/01/21 14:17:08;;;;;;;37.80;21.52;;;;;;;;;;5054583;28;20049;-67
2023/01/21 14:19:56;;;;;;;46.67;21.60;;;;;;;;;;5054266;28;20045;-67
2023/01/21 14:22:26;;;;;;;46.63;21.60;;;;;;;;;;5054314;28;20377;-66
2023/01/21 14:24:55;;;;;;;31.02;20.42;;;;;;;;;;5054429;28;20451;-68
2023/01/21 14:27:27;;;;;;;38.30;22.80;;;;;;;;;;5054192;28;20122;-66
2023/01/21 14:30:08;;;;;;;38.95;22.23;;;;;;;;;;5052913;28;20059;-67
2023/01/21 14:32:36;;;;;;;42.83;23.25;;;;;;;;;;5053795;28;20041;-66
2023/01/21 14:35:05;;;;;;;39.50;22.92;;;;;;;;;;5052286;28;20058;-69
2023/01/21 14:37:40;;;;;;;38.08;23.10;;;;;;;;;;5052776;28;20046;-66
2023/01/21 14:40:09;;;;;;;38.60;22.40;;;;;;;;;;5053527;28;20053;-67